Wetterdaten: Woche 25.02.13 - 03.03.13 (KW9)
Datum Zeit Temp. Aussen +5cm Feuchte Auss Luftdruck Regen Sonnenschein Regendauer UV Solar Windben
25.02.2013 00:00 0,5 C -0,8 C 99 % 1017,8 hPa 0,0 l/m 0,00 h 0,00 h 0,0 UV-I 0 W/m 8,7 km/h (2 Bft)
25.02.2013 01:00 0,6 C -0,4 C 99 % 1017,7 hPa 0,0 l/m 0,00 h 0,00 h 0,0 UV-I 0 W/m 10,0 km/h (2 Bft)
25.02.2013 02:00 0,6 C -0,4 C 100 % 1017,9 hPa 0,0 l/m 0,00 h 0,00 h 0,0 UV-I 0 W/m 7,7 km/h (2 Bft)
25.02.2013 03:00 0,6 C -0,4 C 100 % 1017,9 hPa 0,0 l/m 0,00 h 0,00 h 0,0 UV-I 0 W/m 10,2 km/h (2 Bft)
25.02.2013 04:00 0,7 C -0,4 C 100 % 1018,1 hPa 0,0 l/m 0,00 h 0,00 h 0,0 UV-I 0 W/m 10,2 km/h (2 Bft)
25.02.2013 05:00 0,7 C -0,4 C 100 % 1018,7 hPa 0,0 l/m 0,00 h 0,00 h 0,0 UV-I 0 W/m 6,6 km/h (2 Bft)
25.02.2013 06:00 0,8 C -0,4 C 100 % 1019,0 hPa 0,0 l/m 0,00 h 0,03 h 0,0 UV-I 0 W/m 8,7 km/h (2 Bft)
25.02.2013 07:00 0,8 C -0,4 C 100 % 1019,3 hPa 0,0 l/m 0,00 h 0,00 h 0,0 UV-I 5 W/m 9,2 km/h (2 Bft)
25.02.2013 08:00 0,9 C -0,3 C 100 % 1019,8 hPa 0,0 l/m 0,00 h 0,17 h 0,0 UV-I 10 W/m 7,7 km/h (2 Bft)
25.02.2013 09:00 0,9 C -0,3 C 99 % 1020,2 hPa 0,2 l/m 0,00 h 0,73 h 0,0 UV-I 21 W/m 7,8 km/h (2 Bft)
25.02.2013 10:00 0,7 C -0,5 C 99 % 1020,5 hPa 0,4 l/m 0,00 h 0,20 h 0,0 UV-I 27 W/m 8,1 km/h (2 Bft)
25.02.2013 11:00 1,1 C -0,3 C 99 % 1020,8 hPa 0,6 l/m 0,00 h 0,90 h 0,0 UV-I 45 W/m 11,0 km/h (2 Bft)
25.02.2013 12:00 1,2 C -0,1 C 99 % 1020,8 hPa 0,8 l/m 0,00 h 0,87 h 0,0 UV-I 45 W/m 9,6 km/h (2 Bft)
25.02.2013 13:00 1,3 C 0,0 C 99 % 1020,6 hPa 0,4 l/m 0,00 h 0,93 h 0,0 UV-I 48 W/m 12,4 km/h (3 Bft)
25.02.2013 14:00 1,2 C -0,1 C 99 % 1020,7 hPa 0,8 l/m 0,00 h 1,00 h 0,0 UV-I 46 W/m 11,6 km/h (2 Bft)
25.02.2013 15:00 0,7 C -0,5 C 99 % 1020,9 hPa 0,6 l/m 0,00 h 0,83 h 0,0 UV-I 31 W/m 6,3 km/h (2 Bft)
25.02.2013 16:00 0,8 C -0,4 C 100 % 1021,2 hPa 0,4 l/m 0,00 h 1,00 h 0,0 UV-I 10 W/m 5,7 km/h (1 Bft)
25.02.2013 17:00 1,3 C 0,1 C 100 % 1021,5 hPa 0,2 l/m 0,00 h 0,83 h 0,0 UV-I 5 W/m 4,5 km/h (1 Bft)
25.02.2013 18:00 1,3 C 0,1 C 100 % 1021,8 hPa 0,2 l/m 0,00 h 0,30 h 0,0 UV-I 0 W/m 4,1 km/h (1 Bft)
25.02.2013 19:00 1,4 C 0,1 C 100 % 1022,5 hPa 0,0 l/m 0,00 h 0,03 h 0,0 UV-I 0 W/m 3,9 km/h (1 Bft)
25.02.2013 20:00 1,5 C 0,1 C 100 % 1023,1 hPa 0,0 l/m 0,00 h 0,00 h 0,0 UV-I 0 W/m 3,4 km/h (1 Bft)
25.02.2013 21:00 1,5 C 0,1 C 100 % 1024,0 hPa 0,0 l/m 0,00 h 0,00 h 0,0 UV-I 0 W/m 4,4 km/h (1 Bft)
25.02.2013 22:00 1,6 C 0,1 C 100 % 1024,5 hPa 0,0 l/m 0,00 h 0,00 h 0,0 UV-I 0 W/m 4,4 km/h (1 Bft)
25.02.2013 23:00 1,6 C 0,1 C 100 % 1024,9 hPa 0,0 l/m 0,00 h 0,00 h 0,0 UV-I 0 W/m 3,4 km/h (1 Bft)
26.02.2013 00:00 1,5 C 0,1 C 99 % 1025,4 hPa 0,0 l/m 0,00 h 0,00 h 0,0 UV-I 0 W/m 1,4 km/h (1 Bft)
26.02.2013 01:00 1,4 C 0,1 C 99 % 1025,9 hPa 0,0 l/m 0,00 h 0,00 h 0,0 UV-I 0 W/m 0,8 km/h (0 Bft)
26.02.2013 02:00 1,3 C 0,1 C 99 % 1026,4 hPa 0,0 l/m 0,00 h 0,00 h 0,0 UV-I 0 W/m 0,7 km/h (0 Bft)
26.02.2013 03:00 1,3 C 0,1 C 99 % 1027,0 hPa 0,0 l/m 0,00 h 0,00 h 0,0 UV-I 0 W/m 0,2 km/h (0 Bft)
26.02.2013 04:00 1,3 C 0,1 C 99 % 1027,5 hPa 0,0 l/m 0,00 h 0,00 h 0,0 UV-I 0 W/m 1,5 km/h (1 Bft)
26.02.2013 05:00 1,3 C -0,1 C 99 % 1027,8 hPa 0,0 l/m 0,00 h 0,00 h 0,0 UV-I 0 W/m 1,1 km/h (1 Bft)
26.02.2013 06:00 0,7 C -1,5 C 99 % 1028,2 hPa 0,0 l/m 0,00 h 0,00 h 0,0 UV-I 0 W/m 0,3 km/h (0 Bft)
26.02.2013 07:00 0,0 C -1,7 C 99 % 1028,9 hPa 0,0 l/m 0,00 h 0,00 h 0,0 UV-I 9 W/m 0,2 km/h (0 Bft)
26.02.2013 08:00 0,0 C -1,3 C 99 % 1029,7 hPa 0,0 l/m 0,00 h 0,00 h 0,0 UV-I 44 W/m 0,5 km/h (0 Bft)
26.02.2013 09:00 1,0 C 0,0 C 100 % 1030,1 hPa 0,0 l/m 0,03 h 0,00 h 0,0 UV-I 110 W/m 1,4 km/h (1 Bft)
26.02.2013 10:00 2,5 C 1,9 C 100 % 1030,3 hPa 0,0 l/m 0,83 h 0,00 h 0,0 UV-I 280 W/m 2,9 km/h (1 Bft)
26.02.2013 11:00 4,4 C 3,6 C 95 % 1030,7 hPa 0,0 l/m 0,23 h 0,00 h 0,5 UV-I 232 W/m 5,7 km/h (1 Bft)
26.02.2013 12:00 5,2 C 4,6 C 87 % 1030,9 hPa 0,0 l/m 0,13 h 0,00 h 0,6 UV-I 176 W/m 12,4 km/h (3 Bft)
26.02.2013 13:00 4,7 C 4,4 C 90 % 1030,7 hPa 0,0 l/m 0,00 h 0,00 h 0,0 UV-I 131 W/m 9,4 km/h (2 Bft)
26.02.2013 14:00 5,1 C 4,9 C 90 % 1030,2 hPa 0,2 l/m 0,00 h 0,10 h 0,0 UV-I 131 W/m 12,4 km/h (3 Bft)
26.02.2013 15:00 5,4 C 4,8 C 90 % 1030,1 hPa 0,0 l/m 0,00 h 0,00 h 0,0 UV-I 75 W/m 6,8 km/h (2 Bft)
26.02.2013 16:00 5,3 C 4,4 C 90 % 1030,0 hPa 0,0 l/m 0,00 h 0,00 h 0,0 UV-I 49 W/m 10,5 km/h (2 Bft)
26.02.2013 17:00 4,5 C 3,3 C 92 % 1030,2 hPa 0,0 l/m 0,00 h 0,00 h 0,0 UV-I 12 W/m 14,2 km/h (3 Bft)
26.02.2013 18:00 3,7 C 2,5 C 94 % 1030,4 hPa 0,0 l/m 0,00 h 0,00 h 0,0 UV-I 0 W/m 11,1 km/h (2 Bft)
26.02.2013 19:00 3,4 C 2,3 C 95 % 1030,7 hPa 0,0 l/m 0,00 h 0,00 h 0,0 UV-I 0 W/m 11,8 km/h (2 Bft)
26.02.2013 20:00 3,4 C 2,3 C 95 % 1030,8 hPa 0,0 l/m 0,00 h 0,00 h 0,0 UV-I 0 W/m 10,3 km/h (2 Bft)
26.02.2013 21:00 3,3 C 2,3 C 95 % 1031,1 hPa 0,0 l/m 0,00 h 0,00 h 0,0 UV-I 0 W/m 8,7 km/h (2 Bft)
26.02.2013 22:00 3,1 C 1,9 C 95 % 1031,3 hPa 0,0 l/m 0,00 h 0,00 h 0,0 UV-I 0 W/m 3,7 km/h (1 Bft)
26.02.2013 23:00 2,6 C 1,4 C 95 % 1031,5 hPa 0,0 l/m 0,00 h 0,00 h 0,0 UV-I 0 W/m 4,9 km/h (1 Bft)
27.02.2013 00:00 2,0 C 1,0 C 96 % 1031,5 hPa 0,0 l/m 0,00 h 0,00 h 0,0 UV-I 0 W/m 6,3 km/h (2 Bft)
27.02.2013 01:00 1,6 C 0,7 C 96 % 1031,8 hPa 0,0 l/m 0,00 h 0,00 h 0,0 UV-I 0 W/m 5,9 km/h (2 Bft)
27.02.2013 02:00 1,3 C 0,2 C 96 % 1031,7 hPa 0,0 l/m 0,00 h 0,00 h 0,0 UV-I 0 W/m 5,9 km/h (2 Bft)
27.02.2013 03:00 0,9 C 0,1 C 97 % 1031,5 hPa 0,0 l/m 0,00 h 0,00 h 0,0 UV-I 0 W/m 7,2 km/h (2 Bft)
27.02.2013 04:00 0,8 C 0,1 C 97 % 1031,3 hPa 0,0 l/m 0,00 h 0,00 h 0,0 UV-I 0 W/m 5,9 km/h (2 Bft)
27.02.2013 05:00 0,7 C -0,3 C 97 % 1031,3 hPa 0,0 l/m 0,00 h 0,00 h 0,0 UV-I 0 W/m 6,0 km/h (2 Bft)
27.02.2013 06:00 0,7 C -0,4 C 97 % 1031,2 hPa 0,0 l/m 0,00 h 0,00 h 0,0 UV-I 0 W/m 2,7 km/h (1 Bft)
27.02.2013 07:00 0,6 C -0,4 C 97 % 1031,2 hPa 0,0 l/m 0,00 h 0,00 h 0,0 UV-I 0 W/m 3,1 km/h (1 Bft)
27.02.2013 08:00 0,7 C 0,0 C 97 % 1031,6 hPa 0,0 l/m 0,00 h 0,00 h 0,0 UV-I 9 W/m 4,4 km/h (1 Bft)
27.02.2013 09:00 0,8 C 0,1 C 97 % 1031,8 hPa 0,0 l/m 0,00 h 0,00 h 0,0 UV-I 18 W/m 5,7 km/h (1 Bft)
27.02.2013 10:00 0,9 C 0,3 C 96 % 1032,0 hPa 0,0 l/m 0,00 h 0,00 h 0,0 UV-I 33 W/m 7,0 km/h (2 Bft)
27.02.2013 11:00 1,2 C 0,7 C 95 % 1032,0 hPa 0,0 l/m 0,00 h 0,00 h 0,0 UV-I 44 W/m 4,5 km/h (1 Bft)
27.02.2013 12:00 1,3 C 0,9 C 94 % 1031,8 hPa 0,0 l/m 0,00 h 0,00 h 0,0 UV-I 47 W/m 6,3 km/h (2 Bft)
27.02.2013 13:00 1,5 C 1,2 C 93 % 1031,2 hPa 0,0 l/m 0,00 h 0,00 h 0,0 UV-I 46 W/m 3,0 km/h (1 Bft)
27.02.2013 14:00 1,7 C 1,2 C 93 % 1031,0 hPa 0,0 l/m 0,00 h 0,00 h 0,0 UV-I 39 W/m 3,8 km/h (1 Bft)
27.02.2013 15:00 1,6 C 0,9 C 93 % 1030,9 hPa 0,0 l/m 0,00 h 0,00 h 0,0 UV-I 26 W/m 4,9 km/h (1 Bft)
27.02.2013 16:00 1,5 C 0,7 C 93 % 1030,6 hPa 0,0 l/m 0,00 h 0,00 h 0,0 UV-I 16 W/m 5,3 km/h (1 Bft)
27.02.2013 17:00 1,3 C 0,7 C 93 % 1030,6 hPa 0,0 l/m 0,00 h 0,00 h 0,0 UV-I 7 W/m 3,3 km/h (1 Bft)
27.02.2013 18:00 1,3 C 0,2 C 93 % 1030,6 hPa 0,0 l/m 0,00 h 0,00 h 0,0 UV-I 0 W/m 2,7 km/h (1 Bft)
27.02.2013 19:00 1,2 C 0,1 C 93 % 1030,6 hPa 0,0 l/m 0,00 h 0,00 h 0,0 UV-I 0 W/m 5,2 km/h (1 Bft)
27.02.2013 20:00 1,1 C 0,1 C 92 % 1030,4 hPa 0,0 l/m 0,00 h 0,00 h 0,0 UV-I 0 W/m 2,1 km/h (1 Bft)
27.02.2013 21:00 1,1 C 0,1 C 92 % 1030,4 hPa 0,0 l/m 0,00 h 0,00 h 0,0 UV-I 0 W/m 3,0 km/h (1 Bft)
27.02.2013 22:00 1,1 C 0,1 C 92 % 1030,3 hPa 0,0 l/m 0,00 h 0,00 h 0,0 UV-I 0 W/m 2,8 km/h (1 Bft)
27.02.2013 23:00 1,1 C 0,1 C 92 % 1030,2 hPa 0,0 l/m 0,00 h 0,00 h 0,0 UV-I 0 W/m 0,4 km/h (0 Bft)
28.02.2013 00:00 1,0 C 0,1 C 92 % 1030,0 hPa 0,0 l/m 0,00 h 0,00 h 0,0 UV-I 0 W/m 0,2 km/h (0 Bft)
28.02.2013 01:00 0,9 C 0,1 C 93 % 1029,6 hPa 0,0 l/m 0,00 h 0,00 h 0,0 UV-I 0 W/m 1,2 km/h (1 Bft)
28.02.2013 02:00 0,9 C 0,1 C 93 % 1029,0 hPa 0,0 l/m 0,00 h 0,00 h 0,0 UV-I 0 W/m 0,7 km/h (0 Bft)
28.02.2013 03:00 0,9 C 0,1 C 93 % 1028,5 hPa 0,0 l/m 0,00 h 0,00 h 0,0 UV-I 0 W/m 0,4 km/h (0 Bft)
28.02.2013 04:00 0,9 C 0,1 C 94 % 1028,2 hPa 0,0 l/m 0,00 h 0,00 h 0,0 UV-I 0 W/m 0,4 km/h (0 Bft)
28.02.2013 05:00 0,9 C 0,1 C 93 % 1028,0 hPa 0,0 l/m 0,00 h 0,00 h 0,0 UV-I 0 W/m 0,4 km/h (0 Bft)
28.02.2013 06:00 0,9 C 0,1 C 93 % 1027,6 hPa 0,0 l/m 0,00 h 0,00 h 0,0 UV-I 0 W/m 0,8 km/h (0 Bft)
28.02.2013 07:00 0,9 C 0,1 C 93 % 1027,7 hPa 0,0 l/m 0,00 h 0,00 h 0,0 UV-I 6 W/m 0,8 km/h (0 Bft)
28.02.2013 08:00 1,1 C 0,3 C 93 % 1028,0 hPa 0,0 l/m 0,00 h 0,00 h 0,0 UV-I 18 W/m 0,6 km/h (0 Bft)
28.02.2013 09:00 1,4 C 1,1 C 93 % 1028,1 hPa 0,0 l/m 0,00 h 0,00 h 0,0 UV-I 46 W/m 0,9 km/h (0 Bft)
28.02.2013 10:00 2,0 C 1,8 C 91 % 1028,1 hPa 0,0 l/m 0,00 h 0,00 h 0,0 UV-I 89 W/m 5,2 km/h (1 Bft)
28.02.2013 11:00 2,8 C 2,9 C 89 % 1028,1 hPa 0,0 l/m 0,00 h 0,00 h 0,0 UV-I 151 W/m 7,2 km/h (2 Bft)
28.02.2013 12:00 3,8 C 4,3 C 85 % 1027,7 hPa 0,0 l/m 0,00 h 0,00 h 0,0 UV-I 196 W/m 7,2 km/h (2 Bft)
28.02.2013 13:00 4,5 C 4,8 C 83 % 1027,3 hPa 0,0 l/m 0,00 h 0,00 h 0,5 UV-I 219 W/m 8,1 km/h (2 Bft)
28.02.2013 14:00 5,0 C 5,0 C 81 % 1027,0 hPa 0,0 l/m 0,00 h 0,00 h 0,0 UV-I 196 W/m 11,7 km/h (2 Bft)
28.02.2013 15:00 5,3 C 5,2 C 80 % 1026,5 hPa 0,0 l/m 0,20 h 0,00 h 0,0 UV-I 173 W/m 8,1 km/h (2 Bft)
28.02.2013 16:00 5,3 C 4,4 C 78 % 1026,1 hPa 0,0 l/m 0,00 h 0,00 h 0,0 UV-I 49 W/m 4,0 km/h (1 Bft)
28.02.2013 17:00 4,9 C 3,7 C 81 % 1026,0 hPa 0,0 l/m 0,00 h 0,00 h 0,0 UV-I 15 W/m 0,6 km/h (0 Bft)
28.02.2013 18:00 4,4 C 3,0 C 83 % 1026,2 hPa 0,0 l/m 0,00 h 0,00 h 0,0 UV-I 0 W/m 7,1 km/h (2 Bft)
28.02.2013 19:00 3,6 C 2,4 C 86 % 1026,2 hPa 0,0 l/m 0,00 h 0,00 h 0,0 UV-I 0 W/m 9,3 km/h (2 Bft)
28.02.2013 20:00 3,0 C 1,8 C 89 % 1026,2 hPa 0,0 l/m 0,00 h 0,00 h 0,0 UV-I 0 W/m 9,9 km/h (2 Bft)
28.02.2013 21:00 2,5 C 1,3 C 90 % 1026,3 hPa 0,0 l/m 0,00 h 0,00 h 0,0 UV-I 0 W/m 4,7 km/h (1 Bft)
28.02.2013 22:00 2,1 C 1,2 C 90 % 1026,5 hPa 0,0 l/m 0,00 h 0,00 h 0,0 UV-I 0 W/m 7,0 km/h (2 Bft)
28.02.2013 23:00 1,7 C 0,7 C 88 % 1026,5 hPa 0,0 l/m 0,00 h 0,00 h 0,0 UV-I 0 W/m 9,6 km/h (2 Bft)
01.03.2013 00:00 1,5 C 0,7 C 89 % 1026,4 hPa 0,0 l/m 0,00 h 0,00 h 0,0 UV-I 0 W/m 0,4 km/h (0 Bft)
01.03.2013 01:00 1,5 C 0,7 C 90 % 1026,0 hPa 0,0 l/m 0,00 h 0,00 h 0,0 UV-I 0 W/m 0,3 km/h (0 Bft)
01.03.2013 02:00 1,6 C 0,7 C 91 % 1025,8 hPa 0,0 l/m 0,00 h 0,00 h 0,0 UV-I 0 W/m 3,8 km/h (1 Bft)
01.03.2013 03:00 1,4 C 0,7 C 92 % 1025,4 hPa 0,0 l/m 0,00 h 0,00 h 0,0 UV-I 0 W/m 1,1 km/h (1 Bft)
01.03.2013 04:00 1,6 C 0,7 C 93 % 1025,0 hPa 0,0 l/m 0,00 h 0,00 h 0,0 UV-I 0 W/m 4,4 km/h (1 Bft)
01.03.2013 05:00 1,8 C 0,7 C 94 % 1025,0 hPa 0,0 l/m 0,00 h 0,00 h 0,0 UV-I 0 W/m 1,3 km/h (1 Bft)
01.03.2013 06:00 1,8 C 0,7 C 94 % 1024,8 hPa 0,0 l/m 0,00 h 0,00 h 0,0 UV-I 0 W/m 0,2 km/h (0 Bft)
01.03.2013 07:00 1,8 C 0,7 C 94 % 1024,9 hPa 0,0 l/m 0,00 h 0,00 h 0,0 UV-I 6 W/m 1,6 km/h (1 Bft)
01.03.2013 08:00 1,8 C 0,9 C 95 % 1025,3 hPa 0,0 l/m 0,00 h 0,00 h 0,0 UV-I 19 W/m 1,3 km/h (1 Bft)
01.03.2013 09:00 2,0 C 1,2 C 97 % 1025,5 hPa 0,0 l/m 0,00 h 0,00 h 0,0 UV-I 34 W/m 1,6 km/h (1 Bft)
01.03.2013 10:00 2,5 C 2,0 C 98 % 1025,5 hPa 0,0 l/m 0,00 h 0,10 h 0,0 UV-I 64 W/m 5,1 km/h (1 Bft)
01.03.2013 11:00 3,0 C 2,5 C 98 % 1025,7 hPa 0,0 l/m 0,00 h 0,00 h 0,0 UV-I 93 W/m 9,6 km/h (2 Bft)
01.03.2013 12:00 3,8 C 3,9 C 93 % 1025,6 hPa 0,0 l/m 0,00 h 0,00 h 0,0 UV-I 117 W/m 11,4 km/h (2 Bft)
01.03.2013 13:00 4,3 C 4,0 C 83 % 1025,4 hPa 0,0 l/m 0,00 h 0,00 h 0,0 UV-I 101 W/m 13,0 km/h (3 Bft)
01.03.2013 14:00 4,2 C 3,4 C 81 % 1025,3 hPa 0,0 l/m 0,00 h 0,00 h 0,0 UV-I 84 W/m 15,1 km/h (3 Bft)
01.03.2013 15:00 4,0 C 3,4 C 81 % 1025,2 hPa 0,0 l/m 0,00 h 0,00 h 0,0 UV-I 60 W/m 11,3 km/h (2 Bft)
01.03.2013 16:00 4,0 C 3,2 C 81 % 1025,0 hPa 0,0 l/m 0,00 h 0,00 h 0,0 UV-I 41 W/m 9,4 km/h (2 Bft)
01.03.2013 17:00 3,8 C 2,9 C 81 % 1024,9 hPa 0,0 l/m 0,00 h 0,00 h 0,0 UV-I 17 W/m 8,0 km/h (2 Bft)
01.03.2013 18:00 3,6 C 2,3 C 81 % 1025,2 hPa 0,0 l/m 0,00 h 0,00 h 0,0 UV-I 5 W/m 6,9 km/h (2 Bft)
01.03.2013 19:00 3,5 C 2,3 C 80 % 1025,5 hPa 0,0 l/m 0,00 h 0,00 h 0,0 UV-I 0 W/m 11,8 km/h (2 Bft)
01.03.2013 20:00 3,3 C 2,2 C 81 % 1025,7 hPa 0,0 l/m 0,00 h 0,00 h 0,0 UV-I 0 W/m 5,8 km/h (2 Bft)
01.03.2013 21:00 3,0 C 1,8 C 81 % 1025,9 hPa 0,0 l/m 0,00 h 0,00 h 0,0 UV-I 0 W/m 8,8 km/h (2 Bft)
01.03.2013 22:00 2,9 C 1,8 C 82 % 1026,0 hPa 0,0 l/m 0,00 h 0,00 h 0,0 UV-I 0 W/m 3,9 km/h (1 Bft)
01.03.2013 23:00 2,7 C 1,8 C 83 % 1026,1 hPa 0,0 l/m 0,00 h 0,00 h 0,0 UV-I 0 W/m 1,5 km/h (1 Bft)
02.03.2013 00:00 2,6 C 1,3 C 83 % 1026,2 hPa 0,0 l/m 0,00 h 0,00 h 0,0 UV-I 0 W/m 0,2 km/h (0 Bft)
02.03.2013 01:00 2,3 C 1,2 C 83 % 1026,1 hPa 0,0 l/m 0,00 h 0,00 h 0,0 UV-I 0 W/m 0,3 km/h (0 Bft)
02.03.2013 02:00 2,2 C 1,0 C 84 % 1025,9 hPa 0,0 l/m 0,00 h 0,00 h 0,0 UV-I 0 W/m 0,0 km/h (0 Bft)
02.03.2013 03:00 2,1 C 1,1 C 82 % 1025,8 hPa 0,0 l/m 0,00 h 0,00 h 0,0 UV-I 0 W/m 1,3 km/h (1 Bft)
02.03.2013 04:00 1,9 C 0,7 C 82 % 1025,8 hPa 0,0 l/m 0,00 h 0,00 h 0,0 UV-I 0 W/m 0,0 km/h (0 Bft)
02.03.2013 05:00 1,8 C 0,7 C 82 % 1025,8 hPa 0,0 l/m 0,00 h 0,00 h 0,0 UV-I 0 W/m 0,7 km/h (0 Bft)
02.03.2013 06:00 1,8 C 0,7 C 81 % 1025,5 hPa 0,0 l/m 0,00 h 0,00 h 0,0 UV-I 0 W/m 0,8 km/h (0 Bft)
02.03.2013 07:00 1,8 C 0,7 C 80 % 1025,7 hPa 0,0 l/m 0,00 h 0,00 h 0,0 UV-I 8 W/m 0,5 km/h (0 Bft)
02.03.2013 08:00 1,9 C 1,3 C 80 % 1025,8 hPa 0,0 l/m 0,00 h 0,00 h 0,0 UV-I 27 W/m 0,3 km/h (0 Bft)
02.03.2013 09:00 2,3 C 2,0 C 79 % 1025,7 hPa 0,0 l/m 0,00 h 0,00 h 0,0 UV-I 61 W/m 0,4 km/h (0 Bft)
02.03.2013 10:00 2,7 C 2,3 C 77 % 1025,8 hPa 0,0 l/m 0,00 h 0,00 h 0,0 UV-I 81 W/m 0,4 km/h (0 Bft)
02.03.2013 11:00 2,9 C 3,1 C 76 % 1025,8 hPa 0,0 l/m 0,00 h 0,00 h 0,0 UV-I 114 W/m 1,6 km/h (1 Bft)
02.03.2013 12:00 3,3 C 3,4 C 75 % 1025,8 hPa 0,0 l/m 0,00 h 0,00 h 0,0 UV-I 138 W/m 1,8 km/h (1 Bft)
02.03.2013 13:00 3,7 C 4,0 C 74 % 1025,0 hPa 0,0 l/m 0,00 h 0,00 h 0,0 UV-I 173 W/m 2,0 km/h (1 Bft)
02.03.2013 14:00 4,2 C 4,4 C 73 % 1024,2 hPa 0,0 l/m 0,00 h 0,00 h 0,0 UV-I 206 W/m 6,2 km/h (2 Bft)
02.03.2013 15:00 3,9 C 3,8 C 73 % 1024,2 hPa 0,0 l/m 0,27 h 0,00 h 0,0 UV-I 174 W/m 8,3 km/h (2 Bft)
02.03.2013 16:00 3,6 C 3,1 C 75 % 1023,9 hPa 0,0 l/m 0,00 h 0,00 h 0,0 UV-I 77 W/m 7,3 km/h (2 Bft)
02.03.2013 17:00 3,2 C 2,3 C 77 % 1023,6 hPa 0,0 l/m 0,00 h 0,00 h 0,0 UV-I 26 W/m 3,8 km/h (1 Bft)
02.03.2013 18:00 2,8 C 1,8 C 78 % 1023,6 hPa 0,0 l/m 0,00 h 0,00 h 0,0 UV-I 6 W/m 3,2 km/h (1 Bft)
02.03.2013 19:00 2,6 C 1,3 C 79 % 1023,7 hPa 0,0 l/m 0,00 h 0,00 h 0,0 UV-I 0 W/m 0,9 km/h (0 Bft)
02.03.2013 20:00 2,4 C 1,2 C 81 % 1023,8 hPa 0,0 l/m 0,00 h 0,00 h 0,0 UV-I 0 W/m 1,1 km/h (1 Bft)
02.03.2013 21:00 2,3 C 1,2 C 81 % 1023,8 hPa 0,0 l/m 0,00 h 0,00 h 0,0 UV-I 0 W/m 0,5 km/h (0 Bft)
02.03.2013 22:00 2,3 C 1,2 C 82 % 1024,0 hPa 0,0 l/m 0,00 h 0,00 h 0,0 UV-I 0 W/m 0,2 km/h (0 Bft)
02.03.2013 23:00 2,2 C 1,2 C 82 % 1024,0 hPa 0,0 l/m 0,00 h 0,00 h 0,0 UV-I 0 W/m 5,6 km/h (1 Bft)
03.03.2013 00:00 2,2 C 1,2 C 80 % 1024,0 hPa 0,0 l/m 0,00 h 0,00 h 0,0 UV-I 0 W/m 4,6 km/h (1 Bft)
03.03.2013 01:00 2,0 C 1,2 C 81 % 1024,0 hPa 0,0 l/m 0,00 h 0,00 h 0,0 UV-I 0 W/m 2,3 km/h (1 Bft)
03.03.2013 02:00 1,9 C 0,9 C 82 % 1023,8 hPa 0,0 l/m 0,00 h 0,00 h 0,0 UV-I 0 W/m 0,9 km/h (0 Bft)
03.03.2013 03:00 1,7 C 0,7 C 83 % 1023,3 hPa 0,0 l/m 0,00 h 0,00 h 0,0 UV-I 0 W/m 0,0 km/h (0 Bft)
03.03.2013 04:00 1,5 C 0,7 C 85 % 1023,4 hPa 0,0 l/m 0,00 h 0,00 h 0,0 UV-I 0 W/m 0,0 km/h (0 Bft)
03.03.2013 05:00 1,4 C 0,7 C 85 % 1023,5 hPa 0,0 l/m 0,00 h 0,00 h 0,0 UV-I 0 W/m 0,0 km/h (0 Bft)
03.03.2013 06:00 1,5 C 0,7 C 86 % 1023,4 hPa 0,0 l/m 0,00 h 0,00 h 0,0 UV-I 0 W/m 0,1 km/h (0 Bft)
03.03.2013 07:00 1,5 C 0,6 C 88 % 1023,6 hPa 0,0 l/m 0,00 h 0,00 h 0,0 UV-I 11 W/m 0,9 km/h (0 Bft)
03.03.2013 08:00 1,6 C 1,0 C 90 % 1023,8 hPa 0,0 l/m 0,00 h 0,00 h 0,0 UV-I 31 W/m 0,9 km/h (0 Bft)
03.03.2013 09:00 1,9 C 1,7 C 90 % 1024,0 hPa 0,0 l/m 0,00 h 0,00 h 0,0 UV-I 73 W/m 1,3 km/h (1 Bft)
03.03.2013 10:00 2,6 C 2,5 C 89 % 1024,0 hPa 0,0 l/m 0,00 h 0,00 h 0,0 UV-I 97 W/m 1,5 km/h (1 Bft)
03.03.2013 11:00 3,1 C 3,6 C 90 % 1024,0 hPa 0,0 l/m 0,00 h 0,00 h 0,0 UV-I 147 W/m 0,5 km/h (0 Bft)
03.03.2013 12:00 4,2 C 4,7 C 88 % 1024,0 hPa 0,0 l/m 0,00 h 0,00 h 0,5 UV-I 171 W/m 1,4 km/h (1 Bft)
03.03.2013 13:00 4,8 C 5,0 C 87 % 1023,6 hPa 0,0 l/m 0,00 h 0,00 h 0,5 UV-I 122 W/m 1,8 km/h (1 Bft)
03.03.2013 14:00 4,7 C 4,5 C 88 % 1023,4 hPa 0,0 l/m 0,00 h 0,00 h 0,0 UV-I 74 W/m 2,8 km/h (1 Bft)
03.03.2013 15:00 4,9 C 5,2 C 87 % 1023,0 hPa 0,0 l/m 0,00 h 0,00 h 0,0 UV-I 129 W/m 3,1 km/h (1 Bft)
03.03.2013 16:00 5,1 C 4,7 C 86 % 1022,8 hPa 0,0 l/m 0,00 h 0,00 h 0,0 UV-I 61 W/m 4,8 km/h (1 Bft)
03.03.2013 17:00 4,8 C 3,8 C 82 % 1022,7 hPa 0,0 l/m 0,00 h 0,00 h 0,0 UV-I 25 W/m 3,5 km/h (1 Bft)
03.03.2013 18:00 4,5 C 3,1 C 78 % 1022,7 hPa 0,0 l/m 0,00 h 0,00 h 0,0 UV-I 6 W/m 3,9 km/h (1 Bft)
03.03.2013 19:00 4,1 C 2,9 C 79 % 1023,0 hPa 0,0 l/m 0,00 h 0,00 h 0,0 UV-I 0 W/m 6,0 km/h (2 Bft)
03.03.2013 20:00 3,9 C 2,6 C 79 % 1022,7 hPa 0,0 l/m 0,00 h 0,00 h 0,0 UV-I 0 W/m 4,6 km/h (1 Bft)
03.03.2013 21:00 3,8 C 2,3 C 80 % 1022,8 hPa 0,0 l/m 0,00 h 0,00 h 0,0 UV-I 0 W/m 5,1 km/h (1 Bft)
03.03.2013 22:00 3,2 C 1,3 C 81 % 1022,8 hPa 0,0 l/m 0,00 h 0,00 h 0,0 UV-I 0 W/m 3,4 km/h (1 Bft)
03.03.2013 23:00 2,3 C -0,1 C 84 % 1022,5 hPa 0,0 l/m 0,00 h 0,00 h 0,0 UV-I 0 W/m 0,7 km/h (0 Bft)
Min-Datum _ 26.02.13 26.02.13 02.03.13 25.02.13 - - - - - 25.02.13
_ Min-Zeit 08:08 06:36 14:38 01:16 - - - - - 00:00
Minimum _ -0,2 C -2,1 C 71 % 1017,5 hPa - - - - - 0,0 km/h (0 Bft)
Max-Datum _ 26.02.13 26.02.13 25.02.13 27.02.13 25.02.13 26.02.13 25.02.13 26.02.13 26.02.13 26.02.13
_ Max-Zeit 12:18 12:10 02:16 10:44 12:04 09:26 06:34 12:06 10:48 16:00
Maximum _ 5,7 C 5,7 C 100 % 1032,1 hPa 0,8 l/m 0,03 h 0,03 h 0,7 UV-I 385 W/m 23,2 km/h
NW (4 Bft)
Durchschnitt _ 2,3 C 1,4 C 90 % 1026,1 hPa #4,8 l/m #1:42 h #8:02 h 0,5 UV-I 72 W/m 4,6 km/h (1 Bft)
© 2013 W. Hausmann